Time;durP1;ratioP1;P1;durP2;ratioP2;P2;SDS_P1;SDS_P2;PMS_P1;PMS_P2;Temp;Humidity;BMP_temperature;BMP_pressure;BME280_temperature;BME280_humidity;BME280_pressure;Samples;Min_cycle;Max_cycle;Signal;HPM_P1;HPM_P2
2023/04/09 04:13:44;;;;;;;34.67;26.17;;;13.30;99.90;;;;;;4589104;19;20381;-30
2023/04/09 04:17:07;;;;;;;34.37;26.03;;;13.20;99.90;;;;;;4589447;19;20465;-30
2023/04/09 04:18:38;;;;;;;34.15;25.60;;;13.20;99.90;;;;;;4590986;19;20425;-30
2023/04/09 04:20:10;;;;;;;35.78;25.30;;;13.20;99.90;;;;;;4590115;19;20014;-30
2023/04/09 04:21:41;;;;;;;34.58;25.60;;;13.20;99.90;;;;;;4590230;19;20404;-30
2023/04/09 04:23:12;;;;;;;30.10;24.70;;;13.20;99.90;;;;;;4589566;19;20334;-30
2023/04/09 04:24:43;;;;;;;32.70;23.33;;;13.20;99.90;;;;;;4586937;19;20507;-30
2023/04/09 04:26:14;;;;;;;29.75;22.88;;;13.20;99.90;;;;;;4589336;19;20007;-30
2023/04/09 04:27:45;;;;;;;28.65;22.25;;;13.20;99.90;;;;;;4588335;19;20047;-30
2023/04/09 04:29:17;;;;;;;28.42;22.90;;;13.20;99.90;;;;;;4589032;19;20014;-30
2023/04/09 04:30:48;;;;;;;32.75;23.65;;;13.20;99.90;;;;;;4590034;19;20083;-30
2023/04/09 04:32:20;;;;;;;29.65;23.27;;;13.20;99.90;;;;;;4589417;19;20015;-30
2023/04/09 04:33:51;;;;;;;30.52;23.30;;;13.20;99.90;;;;;;4588606;19;20062;-30
2023/04/09 04:35:22;;;;;;;28.45;22.40;;;13.20;99.90;;;;;;4590908;19;20014;-30
2023/04/09 04:36:53;;;;;;;30.30;22.85;;;13.20;99.90;;;;;;4587760;19;20018;-30
2023/04/09 04:38:25;;;;;;;30.50;22.85;;;13.20;99.90;;;;;;4588028;19;20472;-30
2023/04/09 04:39:56;;;;;;;28.08;22.00;;;13.20;99.90;;;;;;4587929;19;20475;-30
2023/04/09 04:41:29;;;;;;;28.70;21.93;;;13.20;99.90;;;;;;4590485;19;20025;-30
2023/04/09 04:43:01;;;;;;;27.47;20.97;;;13.30;99.90;;;;;;4589871;19;20477;-30
2023/04/09 04:44:32;;;;;;;28.10;21.83;;;13.30;99.90;;;;;;4587066;19;20614;-30
2023/04/09 04:46:04;;;;;;;30.27;23.33;;;13.30;99.90;;;;;;4588281;19;20138;-30
2023/04/09 04:47:36;;;;;;;28.77;21.47;;;13.30;99.90;;;;;;4585964;19;20111;-30
2023/04/09 04:49:07;;;;;;;25.75;19.80;;;13.30;99.90;;;;;;4586944;19;20469;-30
2023/04/09 04:50:39;;;;;;;29.07;21.27;;;13.30;99.90;;;;;;4587576;19;20086;-30
2023/04/09 04:52:11;;;;;;;25.93;19.90;;;13.30;99.90;;;;;;4586462;19;20732;-30
2023/04/09 04:53:44;;;;;;;25.90;20.37;;;13.20;99.90;;;;;;4588170;19;20465;-30
2023/04/09 04:55:16;;;;;;;27.67;20.50;;;13.20;99.90;;;;;;4587522;19;20866;-30
2023/04/09 04:56:48;;;;;;;26.90;20.83;;;13.20;99.90;;;;;;4587999;19;20014;-30
2023/04/09 04:58:20;;;;;;;27.13;20.93;;;13.20;99.90;;;;;;4587087;19;20449;-30
2023/04/09 04:59:53;;;;;;;25.37;19.33;;;13.20;99.90;;;;;;4585740;19;20517;-30
2023/04/09 05:01:25;;;;;;;26.27;20.40;;;13.20;99.90;;;;;;4588028;19;20461;-30
2023/04/09 05:02:56;;;;;;;25.50;19.00;;;13.20;99.90;;;;;;4586726;19;20586;-30
2023/04/09 05:04:28;;;;;;;24.77;18.83;;;13.20;99.90;;;;;;4588011;19;20007;-30
2023/04/09 05:05:59;;;;;;;;;;;13.20;99.90;;;;;;4587907;19;20449;-31
2023/04/09 05:07:32;;;;;;;24.20;18.60;;;13.30;99.90;;;;;;4586693;19;20391;-30
2023/04/09 05:09:05;;;;;;;23.90;18.50;;;13.30;99.90;;;;;;4585785;19;20441;-30
2023/04/09 05:10:40;;;;;;;25.77;20.93;;;13.30;99.90;;;;;;4586861;19;20516;-30
2023/04/09 05:12:11;;;;;;;24.63;19.53;;;13.30;99.90;;;;;;4587784;19;20476;-30
2023/04/09 05:13:42;;;;;;;22.45;18.45;;;13.30;99.90;;;;;;4586398;19;21117;-30
2023/04/09 05:15:14;;;;;;;26.90;19.83;;;13.30;99.90;;;;;;4586819;19;20596;-30
2023/04/09 05:16:46;;;;;;;22.83;17.93;;;13.30;99.90;;;;;;4587853;19;20070;-30
2023/04/09 05:18:17;;;;;;;25.13;18.90;;;13.30;99.90;;;;;;4589044;19;20018;-30
2023/04/09 05:19:52;;;;;;;22.80;18.48;;;13.30;99.90;;;;;;4588165;19;20019;-30
2023/04/09 05:21:25;;;;;;;25.53;19.77;;;13.30;99.90;;;;;;4589631;19;20014;-30
2023/04/09 05:22:55;;;;;;;25.65;19.08;;;13.30;99.90;;;;;;4592804;19;20445;-30
2023/04/09 05:24:27;;;;;;;24.50;18.67;;;13.30;99.90;;;;;;4592841;19;20014;-30
2023/04/09 05:26:00;;;;;;;24.10;19.17;;;13.40;99.90;;;;;;4593888;19;20408;-29
2023/04/09 05:27:32;;;;;;;23.77;18.20;;;13.40;99.90;;;;;;4592384;19;20449;-30
2023/04/09 05:29:03;;;;;;;24.02;18.88;;;13.40;99.90;;;;;;4592976;19;20026;-30
2023/04/09 05:30:35;;;;;;;23.27;18.27;;;13.40;99.90;;;;;;4593204;19;20022;-30
2023/04/09 05:32:08;;;;;;;22.70;17.75;;;13.40;99.90;;;;;;4593880;19;20461;-30
2023/04/09 05:33:39;;;;;;;23.97;18.97;;;13.40;99.90;;;;;;4593233;19;20026;-30
2023/04/09 05:35:12;;;;;;;22.47;17.07;;;13.40;99.90;;;;;;4593108;19;20467;-30
2023/04/09 05:36:43;;;;;;;22.02;17.23;;;13.30;99.90;;;;;;4592754;19;20015;-30
2023/04/09 05:38:14;;;;;;;21.17;17.05;;;13.30;99.90;;;;;;4592906;19;20025;-30
2023/04/09 05:39:46;;;;;;;21.38;17.60;;;13.30;99.90;;;;;;4594384;19;20351;-30
2023/04/09 05:41:19;;;;;;;22.47;18.17;;;13.40;99.90;;;;;;4593235;19;20014;-30
2023/04/09 05:42:50;;;;;;;22.67;18.95;;;13.30;99.90;;;;;;4592695;19;20441;-30
2023/04/09 05:44:21;;;;;;;22.30;18.45;;;13.40;99.90;;;;;;4595544;19;20456;-30
2023/04/09 05:45:52;;;;;;;20.65;17.90;;;13.30;99.90;;;;;;4593999;19;20014;-30
2023/04/09 05:47:23;;;;;;;22.00;17.75;;;13.30;99.90;;;;;;4592406;19;20021;-30
2023/04/09 05:48:56;;;;;;;21.13;17.20;;;13.40;99.90;;;;;;4594427;19;20015;-31
2023/04/09 05:50:28;;;;;;;23.97;19.40;;;13.40;99.90;;;;;;4593513;19;21044;-30
2023/04/09 05:52:00;;;;;;;23.38;19.58;;;13.40;99.90;;;;;;4591846;19;20501;-30
2023/04/09 05:53:31;;;;;;;22.98;17.75;;;13.40;99.90;;;;;;4592310;19;20014;-30
2023/04/09 05:55:02;;;;;;;21.80;17.65;;;13.40;99.90;;;;;;4593087;19;20010;-30
2023/04/09 05:56:34;;;;;;;;;;;13.50;99.90;;;;;;4594235;19;20030;-30
2023/04/09 05:58:05;;;;;;;22.63;17.42;;;13.50;99.90;;;;;;4593128;19;19922;-30
2023/04/09 05:59:38;;;;;;;22.87;17.77;;;13.50;99.90;;;;;;4593347;19;20011;-31
2023/04/09 06:01:10;;;;;;;21.02;16.15;;;13.50;99.90;;;;;;4593434;19;20014;-30
2023/04/09 06:02:42;;;;;;;22.77;17.27;;;13.50;99.90;;;;;;4593757;19;20009;-30
2023/04/09 06:04:13;;;;;;;23.50;17.50;;;13.50;99.90;;;;;;4592790;19;20834;-30
2023/04/09 06:05:47;;;;;;;21.63;16.93;;;13.60;99.90;;;;;;4593379;19;20038;-30
2023/04/09 06:07:19;;;;;;;23.43;18.67;;;13.60;99.90;;;;;;4590516;19;20470;-30
2023/04/09 06:08:51;;;;;;;23.03;17.80;;;13.60;99.90;;;;;;4592275;19;20445;-30
2023/04/09 06:10:23;;;;;;;20.92;17.15;;;13.50;99.90;;;;;;4594253;19;20445;-30
2023/04/09 06:11:54;;;;;;;19.95;17.02;;;13.50;99.90;;;;;;4593194;19;20393;-30
2023/04/09 06:13:25;;;;;;;19.63;16.85;;;13.50;99.90;;;;;;4591823;19;20014;-30
2023/04/09 06:14:58;;;;;;;18.43;15.77;;;13.50;99.90;;;;;;4591520;19;20017;-30
2023/04/09 06:16:29;;;;;;;20.70;16.58;;;13.50;99.90;;;;;;4592376;19;21008;-30
2023/04/09 06:18:01;;;;;;;18.37;14.57;;;13.50;99.90;;;;;;4593104;19;20003;-30
2023/04/09 06:19:34;;;;;;;20.93;16.60;;;13.50;99.90;;;;;;4593186;19;20007;-30
2023/04/09 06:21:06;;;;;;;20.23;16.85;;;13.60;99.90;;;;;;4591631;19;21123;-30
2023/04/09 06:22:37;;;;;;;21.63;18.17;;;13.50;99.90;;;;;;4592338;19;20472;-30
2023/04/09 06:24:10;;;;;;;20.87;17.63;;;13.50;99.90;;;;;;4592714;19;20536;-30
2023/04/09 06:25:41;;;;;;;20.15;15.82;;;13.50;99.90;;;;;;4594588;19;20017;-30
2023/04/09 06:27:12;;;;;;;20.65;17.08;;;13.50;99.90;;;;;;4593708;19;20031;-30
2023/04/09 06:28:45;;;;;;;19.80;16.60;;;13.50;99.90;;;;;;4591814;19;20381;-31
2023/04/09 06:30:16;;;;;;;20.42;16.25;;;13.50;99.90;;;;;;4592579;19;20015;-30
2023/04/09 06:31:49;;;;;;;21.53;16.47;;;13.40;99.90;;;;;;4591794;19;20058;-31
2023/04/09 06:33:21;;;;;;;21.65;17.38;;;13.50;99.90;;;;;;4589614;19;20441;-30
2023/04/09 06:34:52;;;;;;;20.73;15.95;;;13.40;99.90;;;;;;4589118;19;20543;-30
2023/04/09 06:36:23;;;;;;;21.10;16.08;;;13.50;99.90;;;;;;4589480;19;20480;-30
2023/04/09 06:37:55;;;;;;;;;;;13.40;99.90;;;;;;4593339;19;20081;-30
2023/04/09 06:39:26;;;;;;;19.77;16.37;;;13.50;99.90;;;;;;4592685;19;19966;-30
2023/04/09 06:40:57;;;;;;;18.95;15.52;;;13.50;99.90;;;;;;4590878;19;20389;-30
2023/04/09 06:42:29;;;;;;;20.17;16.00;;;13.50;99.90;;;;;;4591342;19;20366;-30
2023/04/09 06:44:00;;;;;;;20.20;16.27;;;13.50;99.90;;;;;;4591222;19;20011;-30
2023/04/09 06:46:10;;;;;;;17.83;15.48;;;13.50;99.90;;;;;;4590667;19;20487;-29
2023/04/09 06:47:41;;;;;;;19.37;15.97;;;13.50;99.90;;;;;;4590934;19;20490;-30
2023/04/09 06:49:12;;;;;;;19.15;15.20;;;13.50;99.90;;;;;;4590195;19;20522;-30
2023/04/09 06:50:43;;;;;;;20.58;15.05;;;13.50;99.90;;;;;;4590832;19;20015;-30
2023/04/09 06:52:16;;;;;;;18.17;15.17;;;13.50;99.90;;;;;;4590628;19;20356;-30
2023/04/09 06:53:49;;;;;;;20.30;16.23;;;13.50;99.90;;;;;;4590559;19;20015;-30
2023/04/09 06:55:21;;;;;;;18.30;15.87;;;13.50;99.90;;;;;;4588743;19;20549;-30
2023/04/09 06:56:52;;;;;;;19.63;16.17;;;13.60;99.90;;;;;;4589931;19;20015;-30
2023/04/09 06:58:23;;;;;;;19.75;15.55;;;13.60;99.90;;;;;;4592603;19;20492;-30
2023/04/09 06:59:56;;;;;;;19.37;15.43;;;13.60;99.90;;;;;;4592441;19;20026;-31
2023/04/09 07:01:27;;;;;;;;;;;13.60;99.90;;;;;;4593169;19;20010;-30
2023/04/09 07:02:58;;;;;;;20.53;15.97;;;13.60;99.90;;;;;;4591839;19;19976;-30
2023/04/09 07:04:29;;;;;;;18.80;15.45;;;13.70;99.90;;;;;;4590894;19;20385;-30
2023/04/09 07:06:01;;;;;;;20.33;16.60;;;13.70;99.90;;;;;;4590630;19;20014;-29
2023/04/09 07:07:33;;;;;;;20.37;16.73;;;13.60;99.90;;;;;;4589434;19;20396;-30
2023/04/09 07:09:04;;;;;;;20.90;16.45;;;13.70;99.90;;;;;;4589929;19;20349;-30
2023/04/09 07:10:35;;;;;;;20.80;17.85;;;13.60;99.90;;;;;;4588784;19;20011;-30
2023/04/09 07:12:06;;;;;;;18.70;16.00;;;13.60;99.90;;;;;;4589344;19;20014;-30
2023/04/09 07:13:39;;;;;;;17.97;15.37;;;13.60;99.90;;;;;;4590940;19;20022;-30
2023/04/09 07:15:11;;;;;;;20.13;16.80;;;13.50;99.90;;;;;;4591270;19;20477;-30
2023/04/09 07:16:45;;;;;;;19.77;17.23;;;13.50;99.90;;;;;;4590135;19;20026;-30
2023/04/09 07:18:16;;;;;;;19.90;17.40;;;13.40;99.90;;;;;;4590979;19;20007;-29
2023/04/09 07:19:50;;;;;;;22.13;17.47;;;13.40;99.90;;;;;;4590858;19;20493;-29
2023/04/09 07:21:22;;;;;;;22.87;17.17;;;13.40;99.90;;;;;;4589170;19;20512;-29
2023/04/09 07:22:55;;;;;;;22.00;17.40;;;13.40;99.90;;;;;;4589269;19;20437;-30
2023/04/09 07:24:27;;;;;;;21.10;18.00;;;13.40;99.90;;;;;;4591127;19;20449;-30
2023/04/09 07:26:01;;;;;;;19.75;16.33;;;13.50;99.90;;;;;;4591535;19;20018;-29
2023/04/09 07:27:34;;;;;;;20.57;16.33;;;13.50;99.90;;;;;;4590510;19;20018;-29
2023/04/09 07:29:05;;;;;;;22.23;16.67;;;13.50;99.90;;;;;;4590421;19;21084;-30
2023/04/09 07:30:37;;;;;;;21.40;16.67;;;13.50;99.90;;;;;;4590521;19;20465;-30
2023/04/09 07:32:09;;;;;;;22.20;17.13;;;13.60;99.90;;;;;;4589323;19;20032;-30
2023/04/09 07:33:40;;;;;;;23.92;17.80;;;13.60;99.90;;;;;;4589833;19;20084;-33
2023/04/09 07:35:13;;;;;;;22.93;17.53;;;13.70;99.90;;;;;;4589458;19;20014;-29
2023/04/09 07:36:44;;;;;;;24.05;18.88;;;13.70;99.90;;;;;;4589374;19;20494;-30
2023/04/09 07:38:16;;;;;;;24.52;18.33;;;13.70;99.90;;;;;;4586845;19;20517;-30
2023/04/09 07:39:48;;;;;;;26.95;20.65;;;13.70;99.90;;;;;;4588749;19;20015;-30
2023/04/09 07:41:19;;;;;;;22.77;17.57;;;13.70;99.90;;;;;;4590064;19;20350;-30
2023/04/09 07:42:52;;;;;;;24.33;21.83;;;13.70;99.90;;;;;;4591083;19;20011;-30
2023/04/09 07:44:24;;;;;;;24.37;21.87;;;12.30;99.90;;;;;;4589902;19;20776;-30
2023/04/09 07:45:56;;;;;;;25.27;22.57;;;11.10;99.90;;;;;;4590158;19;20807;-29
2023/04/09 07:47:28;;;;;;;26.10;22.80;;;10.50;99.90;;;;;;4588075;19;20484;-29
2023/04/09 07:49:00;;;;;;;24.90;22.23;;;10.30;99.90;;;;;;4589639;19;20479;-30
2023/04/09 07:50:31;;;;;;;26.27;23.40;;;10.20;99.90;;;;;;4589100;19;20455;-29
2023/04/09 07:52:02;;;;;;;27.75;24.75;;;10.10;99.90;;;;;;4587843;19;20018;-30
2023/04/09 07:53:34;;;;;;;30.25;27.02;;;10.10;99.90;;;;;;4586464;19;20010;-30
2023/04/09 07:55:05;;;;;;;30.83;27.52;;;10.10;99.90;;;;;;4591005;19;20010;-29
2023/04/09 07:56:36;;;;;;;65.60;59.10;;;10.00;99.90;;;;;;4591389;19;20011;-29
2023/04/09 07:58:08;;;;;;;40.38;36.22;;;10.00;99.90;;;;;;4591090;19;20018;-30
2023/04/09 07:59:41;;;;;;;46.33;41.60;;;10.00;99.90;;;;;;4590474;19;20475;-30
2023/04/09 08:01:14;;;;;;;35.40;31.67;;;10.00;99.90;;;;;;4589875;19;20507;-30
2023/04/09 08:02:45;;;;;;;27.27;20.58;;;10.00;99.90;;;;;;4589886;19;20457;-30
2023/04/09 08:04:16;;;;;;;27.90;20.08;;;10.10;99.90;;;;;;4589451;19;20037;-30
2023/04/09 08:05:48;;;;;;;29.58;22.58;;;10.60;99.90;;;;;;4589403;19;20018;-30
2023/04/09 08:07:19;;;;;;;28.00;21.70;;;11.00;99.90;;;;;;4587915;19;20011;-30
2023/04/09 08:08:52;;;;;;;25.97;19.33;;;11.40;99.90;;;;;;4587300;19;20353;-30
2023/04/09 08:10:23;;;;;;;;;;;11.70;99.90;;;;;;4591202;19;20453;-30
2023/04/09 08:11:54;;;;;;;25.80;19.53;;;12.00;99.90;;;;;;4589944;19;19966;-30
2023/04/09 08:13:25;;;;;;;23.83;18.20;;;12.20;99.90;;;;;;4589852;19;20089;-30
2023/04/09 08:14:57;;;;;;;24.73;19.23;;;12.40;99.90;;;;;;4587777;19;20487;-30
2023/04/09 08:16:30;;;;;;;26.30;19.93;;;12.50;99.90;;;;;;4589418;19;20558;-30
2023/04/09 08:18:02;;;;;;;22.30;18.03;;;12.70;99.90;;;;;;4589597;19;20453;-30
2023/04/09 08:19:34;;;;;;;24.35;20.35;;;12.80;99.90;;;;;;4589213;19;20461;-30
2023/04/09 08:21:06;;;;;;;23.90;19.43;;;12.90;99.90;;;;;;4588506;19;20014;-30
2023/04/09 08:22:37;;;;;;;23.85;17.38;;;13.00;99.90;;;;;;4590801;19;20453;-30
2023/04/09 08:24:10;;;;;;;21.27;17.30;;;13.00;99.90;;;;;;4589120;19;20357;-31
2023/04/09 08:25:41;;;;;;;22.60;17.23;;;13.10;99.90;;;;;;4589611;19;20023;-30
2023/04/09 08:27:12;;;;;;;30.10;22.38;;;13.20;99.90;;;;;;4588789;19;20500;-30
2023/04/09 08:28:44;;;;;;;26.88;20.55;;;13.20;99.90;;;;;;4588093;19;20026;-30
2023/04/09 08:30:15;;;;;;;23.77;17.88;;;13.20;99.90;;;;;;4587724;19;20015;-30
2023/04/09 08:31:46;;;;;;;23.52;19.42;;;13.40;99.90;;;;;;4588340;19;20014;-30
2023/04/09 08:33:17;;;;;;;25.17;21.67;;;13.50;99.90;;;;;;4589006;19;20382;-30
2023/04/09 08:34:49;;;;;;;28.15;22.10;;;13.40;99.90;;;;;;4590655;19;20010;-30
2023/04/09 08:36:21;;;;;;;26.33;21.73;;;13.40;99.90;;;;;;4588020;19;20046;-30
2023/04/09 08:37:52;;;;;;;26.27;21.13;;;13.50;99.90;;;;;;4588822;19;20018;-30
2023/04/09 08:39:24;;;;;;;24.13;19.85;;;13.60;99.90;;;;;;4588975;19;20359;-30
2023/04/09 08:40:55;;;;;;;23.73;19.53;;;13.70;99.90;;;;;;4590204;19;20010;-30
2023/04/09 08:42:27;;;;;;;25.17;17.40;;;13.70;99.90;;;;;;4590146;19;20482;-30
2023/04/09 08:44:01;;;;;;;19.37;16.73;;;13.70;99.90;;;;;;4587341;19;20018;-30
2023/04/09 08:45:35;;;;;;;20.77;16.83;;;13.70;99.90;;;;;;4587441;19;20066;-30
2023/04/09 08:47:11;;;;;;;18.13;14.67;;;13.60;99.90;;;;;;4587141;19;20022;-30
2023/04/09 08:48:44;;;;;;;23.20;17.70;;;13.60;99.90;;;;;;4588124;19;20014;-30
2023/04/09 08:50:16;;;;;;;19.10;17.10;;;13.70;99.90;;;;;;4587991;19;20070;-30
2023/04/09 08:51:48;;;;;;;20.10;18.10;;;12.10;99.90;;;;;;4588264;19;20437;-29
2023/04/09 08:53:21;;;;;;;21.30;19.00;;;11.20;99.90;;;;;;4590317;19;20465;-29
2023/04/09 08:54:54;;;;;;;29.43;24.07;;;10.70;99.90;;;;;;4590020;19;20082;-29
2023/04/09 08:56:25;;;;;;;20.80;18.67;;;10.50;99.90;;;;;;4588636;19;20818;-29
2023/04/09 08:57:57;;;;;;;22.93;20.33;;;10.50;99.90;;;;;;4594254;19;20034;-30
2023/04/09 08:59:30;;;;;;;24.47;20.10;;;10.50;99.90;;;;;;4593732;19;20575;-29
2023/04/09 09:01:04;;;;;;;22.70;20.33;;;10.40;99.90;;;;;;4593490;19;21052;-29
2023/04/09 09:02:40;;;;;;;21.77;19.50;;;10.40;99.90;;;;;;4593501;19;20861;-29
2023/04/09 09:04:11;;;;;;;23.27;20.37;;;10.40;99.90;;;;;;4591783;19;20531;-29
2023/04/09 09:05:43;;;;;;;21.75;19.50;;;10.40;99.90;;;;;;4591940;19;20500;-30
2023/04/09 09:07:15;;;;;;;22.63;20.23;;;10.40;99.90;;;;;;4590394;19;20476;-29
2023/04/09 09:09:15;;;;;;;20.13;18.13;;;10.40;99.90;;;;;;4592108;19;20550;-29
2023/04/09 09:10:46;;;;;;;21.43;19.13;;;10.30;99.90;;;;;;4591258;19;20405;-29
2023/04/09 09:12:37;;;;;;;23.27;20.37;;;10.30;99.90;;;;;;4591992;19;20469;-29
2023/04/09 09:14:10;;;;;;;19.57;15.27;;;10.40;99.90;;;;;;4592087;19;20448;-30
2023/04/09 09:15:41;;;;;;;21.00;16.83;;;10.80;99.90;;;;;;4592053;19;20499;-30
2023/04/09 09:17:13;;;;;;;21.10;15.40;;;11.20;99.90;;;;;;4591159;19;21424;-30
2023/04/09 09:18:45;;;;;;;18.67;15.63;;;11.60;99.90;;;;;;4594320;19;20031;-30
2023/04/09 09:20:19;;;;;;;19.13;14.87;;;11.90;99.90;;;;;;4593876;19;20514;-30
2023/04/09 09:22:05;;;;;;;19.93;14.90;;;12.20;99.90;;;;;;4592898;19;20504;-30
2023/04/09 09:23:37;;;;;;;17.83;14.50;;;12.50;99.90;;;;;;4592923;19;20475;-30
2023/04/09 09:25:09;;;;;;;;;;;12.70;99.90;;;;;;4593594;19;20480;-30
2023/04/09 09:26:42;;;;;;;18.45;14.52;;;12.80;99.90;;;;;;4590805;19;20329;-30
2023/04/09 09:31:17;;;;;;;18.07;13.97;;;13.10;99.90;;;;;;4594431;19;20450;-30
2023/04/09 09:32:52;;;;;;;;;;;13.30;99.90;;;;;;4593817;19;20999;-30
2023/04/09 09:34:24;;;;;;;19.37;15.03;;;13.20;99.90;;;;;;4592955;19;20384;-30
2023/04/09 09:35:56;;;;;;;19.08;15.48;;;13.20;99.90;;;;;;4593083;19;20452;-30
2023/04/09 09:37:28;;;;;;;17.73;14.90;;;13.20;99.90;;;;;;4593477;19;20014;-30
2023/04/09 09:39:02;;;;;;;17.90;15.40;;;13.20;99.90;;;;;;4592697;19;20497;-30
2023/04/09 09:40:34;;;;;;;14.80;13.03;;;13.30;99.90;;;;;;4591310;19;21032;-30
2023/04/09 09:42:08;;;;;;;18.80;14.85;;;13.30;99.90;;;;;;4591508;19;20019;-30
2023/04/09 09:43:41;;;;;;;23.00;16.30;;;13.30;99.90;;;;;;4592768;19;20014;-30
2023/04/09 09:45:20;;;;;;;20.73;16.90;;;13.30;99.90;;;;;;4592836;19;20544;-30
2023/04/09 09:46:53;;;;;;;20.08;17.13;;;13.20;99.90;;;;;;4591768;19;20767;-30
2023/04/09 09:48:25;;;;;;;21.13;16.70;;;13.30;99.90;;;;;;4592170;19;20018;-30
2023/04/09 09:49:56;;;;;;;20.65;16.90;;;13.40;99.90;;;;;;4592234;19;20011;-30
2023/04/09 09:51:27;;;;;;;24.17;18.92;;;13.50;99.90;;;;;;4592158;19;20011;-30
2023/04/09 09:53:05;;;;;;;21.55;18.00;;;13.60;99.90;;;;;;4592855;19;20422;-30
2023/04/09 09:54:42;;;;;;;22.97;17.93;;;13.60;99.90;;;;;;4593193;19;20078;-30
2023/04/09 09:56:15;;;;;;;22.97;17.87;;;13.70;99.90;;;;;;4593792;19;20017;-30
2023/04/09 09:57:49;;;;;;;22.90;18.87;;;13.70;99.90;;;;;;4592911;19;20018;-30
2023/04/09 09:59:26;;;;;;;22.77;17.42;;;13.70;99.90;;;;;;4592300;19;20433;-30
2023/04/09 10:01:12;;;;;;;18.63;14.70;;;13.70;99.90;;;;;;4594045;19;20359;-30
2023/04/09 10:02:55;;;;;;;19.43;15.63;;;13.90;99.90;;;;;;4592583;19;20006;-30
2023/04/09 10:04:28;;;;;;;19.45;16.42;;;14.20;99.90;;;;;;4592129;19;20517;-30
2023/04/09 10:06:01;;;;;;;22.87;18.77;;;14.30;99.90;;;;;;4591673;19;20020;-30
2023/04/09 10:07:33;;;;;;;22.13;18.20;;;14.40;99.90;;;;;;4590142;19;20018;-30
2023/04/09 10:09:06;;;;;;;23.73;18.40;;;14.40;99.90;;;;;;4591874;19;20019;-30
2023/04/09 10:10:41;;;;;;;21.80;17.88;;;14.40;99.90;;;;;;4593271;19;20002;-30
2023/04/09 10:12:12;;;;;;;23.40;18.67;;;14.40;99.90;;;;;;4591568;19;20018;-30
2023/04/09 10:13:48;;;;;;;21.45;17.80;;;14.30;99.90;;;;;;4590265;19;20019;-30
2023/04/09 10:15:21;;;;;;;20.90;17.17;;;14.40;99.90;;;;;;4592356;19;20444;-30
2023/04/09 10:16:53;;;;;;;23.77;19.10;;;14.50;99.90;;;;;;4592470;19;20009;-30
2023/04/09 10:18:24;;;;;;;23.20;19.27;;;14.40;99.90;;;;;;4592906;19;20406;-30
2023/04/09 10:20:39;;;;;;;23.87;19.37;;;14.30;99.90;;;;;;4593042;19;20015;-30
2023/04/09 10:22:15;;;;;;;22.10;17.80;;;14.10;99.90;;;;;;4590851;19;20015;-30
2023/04/09 10:23:49;;;;;;;21.93;18.43;;;14.10;99.90;;;;;;4590652;19;20456;-30
2023/04/09 10:25:20;;;;;;;22.27;17.23;;;14.00;99.90;;;;;;4590675;19;20102;-30
2023/04/09 10:26:53;;;;;;;21.90;16.97;;;14.00;99.90;;;;;;4589987;19;20014;-30
2023/04/09 10:28:25;;;;;;;22.07;17.93;;;13.90;99.90;;;;;;4590111;19;20011;-30
2023/04/09 10:29:59;;;;;;;19.27;16.53;;;13.90;99.90;;;;;;4590627;19;20094;-30
2023/04/09 10:31:47;;;;;;;19.77;16.47;;;13.90;99.90;;;;;;4590269;19;20006;-30
2023/04/09 10:33:26;;;;;;;16.07;13.67;;;13.80;99.90;;;;;;4590101;19;20018;-30
2023/04/09 10:34:58;;;;;;;18.30;15.77;;;13.70;99.90;;;;;;4590029;19;20014;-30
2023/04/09 10:36:31;;;;;;;17.67;14.53;;;13.60;99.90;;;;;;4590157;19;20547;-30
2023/04/09 10:38:05;;;;;;;20.23;17.57;;;13.60;99.90;;;;;;4590517;19;20078;-30
2023/04/09 10:39:40;;;;;;;17.93;14.93;;;13.60;99.90;;;;;;4589973;19;20030;-30
2023/04/09 10:41:15;;;;;;;17.53;14.57;;;13.50;99.90;;;;;;4589660;19;20014;-30
2023/04/09 10:42:49;;;;;;;17.10;14.90;;;13.50;99.90;;;;;;4591407;19;20014;-30
2023/04/09 10:44:24;;;;;;;16.17;14.10;;;13.40;99.90;;;;;;4589945;19;20090;-30
2023/04/09 10:45:56;;;;;;;15.90;14.03;;;13.40;99.90;;;;;;4589927;19;20014;-30
2023/04/09 10:47:33;;;;;;;16.90;14.43;;;13.40;99.90;;;;;;4588742;19;20021;-30
2023/04/09 10:49:11;;;;;;;18.83;15.67;;;13.40;99.90;;;;;;4589597;19;20035;-30
2023/04/09 10:50:45;;;;;;;17.20;15.13;;;13.40;99.90;;;;;;4590137;19;20413;-30
2023/04/09 10:52:19;;;;;;;17.07;14.73;;;13.50;99.90;;;;;;4590522;19;20428;-30
2023/04/09 10:53:53;;;;;;;15.93;14.10;;;13.50;99.90;;;;;;4590280;19;20021;-30
2023/04/09 10:55:41;;;;;;;15.23;13.53;;;13.50;99.90;;;;;;4591378;19;20463;-30
2023/04/09 10:57:15;;;;;;;15.57;13.80;;;13.60;99.90;;;;;;4590993;19;20382;-30
2023/04/09 10:58:48;;;;;;;15.97;14.10;;;13.60;99.90;;;;;;4591397;19;20015;-30
2023/04/09 11:00:20;;;;;;;15.30;13.63;;;13.60;99.90;;;;;;4591710;19;20481;-30
2023/04/09 11:01:53;;;;;;;17.23;15.43;;;13.60;99.90;;;;;;4592271;19;20015;-30
2023/04/09 11:03:27;;;;;;;16.27;14.33;;;13.60;99.90;;;;;;4592122;19;20006;-30
2023/04/09 11:05:12;;;;;;;17.83;15.20;;;13.60;99.90;;;;;;4592445;19;20010;-30
2023/04/09 11:06:44;;;;;;;17.23;14.23;;;13.60;99.90;;;;;;4591565;19;20021;-30
2023/04/09 11:08:15;;;;;;;15.65;13.98;;;13.60;99.90;;;;;;4589170;19;20041;-30
2023/04/09 11:09:47;;;;;;;17.17;14.10;;;13.70;99.90;;;;;;4591526;19;20353;-30
2023/04/09 11:11:25;;;;;;;17.57;14.37;;;13.80;99.90;;;;;;4590517;19;20014;-30
2023/04/09 11:12:56;;;;;;;17.90;13.80;;;13.90;99.90;;;;;;4590447;19;20404;-30
2023/04/09 11:14:27;;;;;;;17.05;12.85;;;13.90;99.90;;;;;;4591585;19;20014;-30
2023/04/09 11:16:02;;;;;;;16.48;14.27;;;13.90;99.90;;;;;;4590235;19;20052;-30
2023/04/09 11:17:37;;;;;;;16.63;13.23;;;13.90;99.90;;;;;;4591184;19;20002;-29
2023/04/09 11:19:09;;;;;;;19.87;16.50;;;13.90;99.90;;;;;;4590492;19;20007;-30
2023/04/09 11:20:41;;;;;;;16.20;14.17;;;13.90;99.90;;;;;;4589453;19;20018;-30
2023/04/09 11:22:13;;;;;;;17.20;13.50;;;14.00;99.90;;;;;;4591102;19;20076;-30
2023/04/09 11:23:51;;;;;;;14.87;13.03;;;14.10;99.90;;;;;;4592101;19;20011;-30
2023/04/09 11:25:24;;;;;;;15.87;13.50;;;14.10;99.90;;;;;;4590203;19;20039;-29
2023/04/09 11:26:56;;;;;;;16.60;13.53;;;14.20;99.90;;;;;;4590856;19;20476;-29
2023/04/09 11:28:29;;;;;;;18.37;14.83;;;14.20;99.90;;;;;;4591413;19;20428;-30
2023/04/09 11:30:01;;;;;;;17.97;14.87;;;14.20;99.90;;;;;;4591446;19;20024;-30
2023/04/09 11:31:34;;;;;;;16.03;14.33;;;14.20;99.90;;;;;;4589692;19;20010;-30
2023/04/09 11:33:07;;;;;;;16.27;13.23;;;14.20;99.90;;;;;;4591104;19;20034;-30
2023/04/09 11:34:39;;;;;;;14.33;12.83;;;14.30;99.90;;;;;;4591066;19;20034;-30
2023/04/09 11:36:10;;;;;;;15.02;12.98;;;14.30;99.90;;;;;;4591687;19;20018;-30
2023/04/09 11:37:44;;;;;;;15.00;13.40;;;14.40;99.90;;;;;;4590924;19;20030;-30
2023/04/09 11:39:17;;;;;;;16.10;12.50;;;14.40;99.90;;;;;;4591194;19;20018;-30
2023/04/09 11:40:49;;;;;;;15.50;11.80;;;14.50;99.90;;;;;;4591309;19;20464;-30
2023/04/09 11:42:21;;;;;;;16.10;13.43;;;14.60;99.90;;;;;;4591245;19;20363;-29
2023/04/09 11:43:52;;;;;;;15.05;13.40;;;14.70;99.90;;;;;;4590911;19;20011;-30
2023/04/09 11:45:26;;;;;;;16.07;13.93;;;14.70;99.90;;;;;;4589764;19;20011;-30
2023/04/09 11:46:59;;;;;;;17.07;14.37;;;14.70;99.90;;;;;;4589620;19;20015;-30
2023/04/09 11:48:30;;;;;;;;;;;14.70;99.90;;;;;;4591399;19;20375;-30
2023/04/09 11:50:05;;;;;;;17.37;13.93;;;14.70;99.90;;;;;;4589098;19;19954;-29
2023/04/09 11:51:41;;;;;;;14.40;12.40;;;14.70;99.90;;;;;;4590121;19;20019;-29
2023/04/09 11:53:21;;;;;;;16.27;13.57;;;14.70;99.90;;;;;;4588846;19;20401;-29
2023/04/09 11:54:58;;;;;;;16.70;14.50;;;14.60;99.90;;;;;;4590087;19;20019;-30
2023/04/09 11:56:30;;;;;;;17.57;13.70;;;14.70;99.90;;;;;;4588714;19;20014;-30
2023/04/09 11:58:01;;;;;;;16.40;13.87;;;14.60;99.90;;;;;;4588489;19;20015;-30
2023/04/09 11:59:32;;;;;;;15.98;11.93;;;14.70;99.90;;;;;;4587798;19;20432;-30
2023/04/09 12:01:04;;;;;;;14.60;11.68;;;14.70;99.90;;;;;;4588416;19;20021;-30
2023/04/09 12:02:42;;;;;;;;;;;14.80;99.90;;;;;;4589575;19;20561;-30
2023/04/09 12:04:23;;;;;;;16.60;12.90;;;14.80;99.90;;;;;;4588907;19;19915;-30
2023/04/09 12:06:00;;;;;;;14.82;12.60;;;14.80;99.90;;;;;;4587730;19;20078;-29
2023/04/09 12:07:37;;;;;;;14.97;13.33;;;14.80;99.90;;;;;;4590169;19;20358;-29
2023/04/09 12:09:12;;;;;;;14.77;13.23;;;14.80;99.90;;;;;;4590903;19;20011;-29
2023/04/09 12:10:44;;;;;;;15.60;13.03;;;14.80;99.90;;;;;;4590744;19;20011;-30
2023/04/09 12:12:19;;;;;;;16.00;13.20;;;14.70;99.90;;;;;;4590377;19;20364;-30